createdAt,value
2023-05-09T00:00:22.238Z,19.81
2023-05-09T00:02:52.205Z,19.60
2023-05-09T00:05:25.812Z,19.78
2023-05-09T00:07:54.793Z,19.85
2023-05-09T00:10:24.104Z,19.88
2023-05-09T00:12:53.704Z,20.20
2023-05-09T00:15:22.655Z,20.22
2023-05-09T00:17:54.685Z,19.93
2023-05-09T00:20:23.947Z,20.23
2023-05-09T00:22:53.110Z,20.25
2023-05-09T00:25:22.002Z,20.13
2023-05-09T00:27:51.333Z,19.97
2023-05-09T00:30:21.086Z,19.40
2023-05-09T00:32:50.298Z,19.75
2023-05-09T00:35:20.246Z,20.16
2023-05-09T00:37:49.684Z,20.47
2023-05-09T00:40:18.618Z,20.22
2023-05-09T00:42:47.611Z,20.28
2023-05-09T00:45:17.027Z,20.52
2023-05-09T00:47:46.231Z,20.94
2023-05-09T00:50:15.705Z,20.96
2023-05-09T00:52:45.147Z,20.92
2023-05-09T00:55:16.768Z,20.85
2023-05-09T00:57:46.788Z,20.69
2023-05-09T01:00:16.355Z,20.85
2023-05-09T01:02:49.656Z,20.93
2023-05-09T01:05:19.956Z,21.05
2023-05-09T01:07:58.334Z,20.70
2023-05-09T01:10:38.966Z,20.76
2023-05-09T01:13:33.107Z,20.81
2023-05-09T01:16:11.434Z,20.58
2023-05-09T01:18:58.897Z,20.53
2023-05-09T01:21:31.530Z,19.99
2023-05-09T01:24:34.446Z,20.04
2023-05-09T01:27:25.308Z,20.27
2023-05-09T01:29:59.178Z,20.11
2023-05-09T01:32:30.918Z,20.34
2023-05-09T01:35:03.985Z,20.05
2023-05-09T01:37:36.867Z,20.16
2023-05-09T01:40:11.631Z,20.16
2023-05-09T01:43:05.019Z,19.77
2023-05-09T01:45:35.666Z,19.99
2023-05-09T01:48:08.122Z,20.15
2023-05-09T01:50:37.896Z,19.93
2023-05-09T01:53:09.185Z,19.63
2023-05-09T01:55:40.522Z,19.87
2023-05-09T01:58:10.973Z,19.07
2023-05-09T02:00:40.578Z,18.78
2023-05-09T02:03:10.612Z,19.27
2023-05-09T02:05:40.950Z,19.38
2023-05-09T02:08:11.274Z,19.53
2023-05-09T02:10:41.446Z,19.40
2023-05-09T02:13:11.069Z,18.66
2023-05-09T02:15:41.111Z,18.63
2023-05-09T02:18:10.142Z,17.92
2023-05-09T02:20:39.119Z,17.57
2023-05-09T02:23:08.190Z,17.17
2023-05-09T02:25:37.447Z,16.84
2023-05-09T02:28:10.063Z,16.68
2023-05-09T02:30:44.249Z,16.56
2023-05-09T02:33:14.727Z,17.38
2023-05-09T02:35:47.155Z,17.35
2023-05-09T02:38:16.774Z,17.37
2023-05-09T02:40:49.820Z,17.08
2023-05-09T02:43:20.422Z,16.89
2023-05-09T02:45:50.683Z,17.07
2023-05-09T02:48:20.875Z,16.82
2023-05-09T02:50:49.977Z,16.78
2023-05-09T02:53:18.969Z,16.89
2023-05-09T02:55:47.965Z,16.82
2023-05-09T02:58:16.961Z,16.60
2023-05-09T03:00:46.770Z,16.39
2023-05-09T03:03:18.781Z,16.29
2023-05-09T03:05:48.359Z,16.13
2023-05-09T03:08:17.923Z,16.11
2023-05-09T03:10:48.568Z,15.97
2023-05-09T03:13:17.949Z,16.12
2023-05-09T03:15:47.020Z,16.11
2023-05-09T03:18:16.034Z,15.97
2023-05-09T03:20:45.444Z,15.83
2023-05-09T03:23:14.450Z,15.81
2023-05-09T03:25:43.534Z,15.72
2023-05-09T03:28:12.398Z,15.42
2023-05-09T03:30:41.480Z,15.36
2023-05-09T03:33:14.502Z,15.41
2023-05-09T03:35:43.450Z,15.42
2023-05-09T03:38:12.511Z,15.32
2023-05-09T03:40:41.569Z,15.28
2023-05-09T03:43:12.560Z,15.22
2023-05-09T03:45:41.577Z,15.16
2023-05-09T03:48:12.397Z,15.01
2023-05-09T03:50:47.037Z,14.98
2023-05-09T03:53:17.286Z,14.86
2023-05-09T03:55:48.758Z,14.80
2023-05-09T03:58:20.158Z,14.78
2023-05-09T04:00:49.771Z,14.69
2023-05-09T04:03:24.350Z,14.68
2023-05-09T04:05:58.006Z,14.62
2023-05-09T04:08:34.032Z,14.58
2023-05-09T04:11:04.793Z,14.48
2023-05-09T04:13:35.375Z,14.37
2023-05-09T04:16:09.463Z,14.34
2023-05-09T04:18:40.785Z,14.36
2023-05-09T04:21:10.284Z,14.32
2023-05-09T04:23:40.231Z,14.19
2023-05-09T04:26:10.607Z,14.26
2023-05-09T04:28:39.791Z,14.19
2023-05-09T04:31:09.052Z,14.15
2023-05-09T04:33:39.952Z,14.07
2023-05-09T04:36:36.961Z,13.97
2023-05-09T04:39:11.804Z,13.94
2023-05-09T04:41:48.580Z,13.89
2023-05-09T04:44:19.504Z,13.76
2023-05-09T04:46:48.550Z,13.72
2023-05-09T04:49:17.612Z,13.61
2023-05-09T04:51:46.824Z,13.61
2023-05-09T04:54:15.855Z,13.64
2023-05-09T04:56:45.685Z,13.77
2023-05-09T04:59:15.549Z,13.77
2023-05-09T05:01:45.353Z,13.74
2023-05-09T05:04:14.865Z,13.71
2023-05-09T05:06:58.465Z,13.63
2023-05-09T05:09:28.713Z,13.51
2023-05-09T05:12:01.266Z,13.50
2023-05-09T05:14:33.456Z,13.43
2023-05-09T05:17:03.093Z,13.35
2023-05-09T05:19:32.834Z,13.33
2023-05-09T05:22:02.669Z,13.22
2023-05-09T05:24:33.855Z,13.18
2023-05-09T05:27:04.182Z,13.15
2023-05-09T05:29:33.518Z,13.13
2023-05-09T05:32:02.657Z,13.13
2023-05-09T05:34:32.164Z,12.93
2023-05-09T05:37:01.777Z,12.91
2023-05-09T05:39:30.932Z,12.65
2023-05-09T05:41:59.989Z,12.79
2023-05-09T05:44:29.127Z,12.79
2023-05-09T05:46:58.590Z,12.78
2023-05-09T05:49:28.992Z,12.42
2023-05-09T05:51:58.405Z,12.32
2023-05-09T05:54:28.558Z,12.26
2023-05-09T05:56:57.645Z,12.31
2023-05-09T05:59:26.704Z,12.50
2023-05-09T06:01:56.021Z,12.41
2023-05-09T06:04:25.122Z,12.56
2023-05-09T06:06:54.080Z,12.45
2023-05-09T06:09:23.032Z,12.43
2023-05-09T06:11:52.030Z,12.26
2023-05-09T06:14:21.066Z,12.25
2023-05-09T06:16:50.596Z,12.03
2023-05-09T06:19:19.756Z,12.13
2023-05-09T06:21:49.432Z,11.94
2023-05-09T06:24:31.858Z,12.01
2023-05-09T06:27:05.912Z,12.07
2023-05-09T06:29:35.046Z,12.25
2023-05-09T06:32:06.894Z,12.21
2023-05-09T06:34:36.781Z,11.87
2023-05-09T06:37:06.293Z,12.07
2023-05-09T06:39:36.294Z,12.19
2023-05-09T06:42:05.251Z,12.01
2023-05-09T06:44:39.576Z,12.11
2023-05-09T06:47:08.843Z,12.11
2023-05-09T06:49:37.865Z,11.92
2023-05-09T06:52:06.807Z,11.88
2023-05-09T06:54:35.881Z,11.78
2023-05-09T06:57:05.111Z,11.68
2023-05-09T06:59:35.306Z,11.83
2023-05-09T07:02:04.586Z,11.60
2023-05-09T07:04:33.734Z,11.61
2023-05-09T07:07:02.915Z,11.38
2023-05-09T07:09:32.013Z,11.39
2023-05-09T07:12:03.938Z,11.21
2023-05-09T07:14:33.111Z,11.53
2023-05-09T07:17:18.178Z,11.72
2023-05-09T07:19:51.640Z,11.61
2023-05-09T07:22:20.905Z,11.63
2023-05-09T07:24:49.951Z,11.67
2023-05-09T07:27:18.967Z,11.68
2023-05-09T07:29:49.927Z,11.70
2023-05-09T07:32:22.093Z,11.59
2023-05-09T07:34:51.070Z,11.81
2023-05-09T07:37:20.012Z,11.80
2023-05-09T07:39:49.087Z,11.83
2023-05-09T07:42:17.983Z,11.56
2023-05-09T07:44:47.330Z,11.73
2023-05-09T07:47:16.332Z,11.53
2023-05-09T07:49:47.312Z,11.19
2023-05-09T07:52:18.077Z,11.12
2023-05-09T07:54:47.159Z,11.28
2023-05-09T07:57:16.944Z,11.29
2023-05-09T07:59:46.019Z,11.41
2023-05-09T08:02:15.411Z,11.33
2023-05-09T08:04:44.822Z,11.36
2023-05-09T08:07:13.902Z,11.35
2023-05-09T08:09:42.977Z,11.21
2023-05-09T08:12:11.904Z,11.34
2023-05-09T08:14:40.919Z,11.41
2023-05-09T08:17:09.919Z,10.81
2023-05-09T08:19:38.807Z,10.38
2023-05-09T08:22:07.754Z,10.21
2023-05-09T08:24:36.784Z,10.53
2023-05-09T08:27:05.720Z,10.89
2023-05-09T08:29:34.767Z,11.09
2023-05-09T08:32:03.809Z,11.11
2023-05-09T08:34:35.397Z,11.08
2023-05-09T08:37:05.782Z,11.04
2023-05-09T08:39:36.185Z,11.03
2023-05-09T08:42:05.428Z,10.88
2023-05-09T08:44:34.310Z,10.97
2023-05-09T08:47:05.345Z,10.99
2023-05-09T08:49:36.504Z,10.89
2023-05-09T08:52:07.078Z,11.09
2023-05-09T08:54:37.827Z,11.16
2023-05-09T08:57:07.568Z,11.11
2023-05-09T08:59:38.331Z,11.07
2023-05-09T09:02:08.882Z,10.98
2023-05-09T09:04:38.202Z,10.87
2023-05-09T09:07:08.827Z,10.75
2023-05-09T09:09:40.223Z,10.75
2023-05-09T09:12:10.815Z,10.71
2023-05-09T09:14:43.688Z,10.69
2023-05-09T09:17:16.558Z,10.60
2023-05-09T09:19:49.396Z,10.73
2023-05-09T09:22:21.629Z,10.71
2023-05-09T09:24:51.780Z,10.68
2023-05-09T09:27:20.905Z,10.67
2023-05-09T09:29:49.734Z,10.63
2023-05-09T09:32:20.474Z,10.55
2023-05-09T09:34:52.332Z,10.56
2023-05-09T09:37:25.052Z,10.48
2023-05-09T09:39:58.021Z,10.47
2023-05-09T09:42:26.934Z,10.43
2023-05-09T09:45:04.191Z,10.31
2023-05-09T09:47:34.735Z,10.07
2023-05-09T09:50:18.876Z,9.82
2023-05-09T09:52:58.820Z,10.01
2023-05-09T09:55:28.037Z,10.21
2023-05-09T09:57:56.989Z,10.22
2023-05-09T10:00:28.751Z,10.22
2023-05-09T10:02:59.505Z,10.11
2023-05-09T10:05:35.228Z,9.96
2023-05-09T10:08:06.095Z,9.92
2023-05-09T10:10:36.588Z,9.78
2023-05-09T10:13:08.623Z,9.50
2023-05-09T10:15:52.444Z,9.73
2023-05-09T10:18:28.973Z,9.85
2023-05-09T10:21:04.502Z,9.81
2023-05-09T10:23:38.330Z,9.87
2023-05-09T10:26:30.632Z,9.87
2023-05-09T10:29:06.805Z,9.82
2023-05-09T10:31:38.170Z,9.74
2023-05-09T10:34:11.490Z,9.51
2023-05-09T10:36:40.593Z,9.72
2023-05-09T10:39:10.502Z,9.80
2023-05-09T10:41:40.728Z,9.75
2023-05-09T10:44:09.724Z,9.83
2023-05-09T10:46:39.092Z,9.81
2023-05-09T10:49:08.988Z,9.72
2023-05-09T10:51:38.161Z,9.56
2023-05-09T10:54:16.755Z,9.49
2023-05-09T10:56:45.751Z,9.72
2023-05-09T10:59:43.942Z,9.68
2023-05-09T11:02:21.793Z,9.57
2023-05-09T11:05:10.703Z,9.65
2023-05-09T11:07:40.675Z,9.72
2023-05-09T11:10:18.699Z,9.77
2023-05-09T11:13:01.812Z,9.73
2023-05-09T11:15:31.253Z,9.55
2023-05-09T11:18:13.162Z,9.58
2023-05-09T11:20:47.223Z,9.70
2023-05-09T11:23:26.652Z,9.56
2023-05-09T11:26:07.288Z,9.89
2023-05-09T11:28:38.455Z,9.87
2023-05-09T11:31:19.596Z,9.70
2023-05-09T11:33:55.966Z,9.77
2023-05-09T11:36:36.407Z,9.80
2023-05-09T11:39:07.185Z,9.64
2023-05-09T11:41:47.854Z,9.82
2023-05-09T11:44:25.905Z,9.86
2023-05-09T11:46:55.332Z,9.41
2023-05-09T11:49:24.603Z,9.26
2023-05-09T11:51:53.597Z,9.36
2023-05-09T11:54:26.058Z,9.52
2023-05-09T11:56:55.398Z,9.50
2023-05-09T11:59:25.453Z,9.75
2023-05-09T12:01:55.424Z,9.96
2023-05-09T12:04:24.723Z,9.59
2023-05-09T12:06:53.846Z,9.69
2023-05-09T12:09:23.162Z,9.66
2023-05-09T12:11:52.596Z,9.50
2023-05-09T12:14:32.020Z,9.39
2023-05-09T12:17:01.163Z,9.14
2023-05-09T12:19:30.301Z,9.28
2023-05-09T12:22:03.268Z,9.34
2023-05-09T12:24:32.585Z,9.48
2023-05-09T12:27:02.184Z,9.52
2023-05-09T12:29:31.827Z,9.56
2023-05-09T12:32:01.500Z,9.62
2023-05-09T12:34:30.546Z,9.50
2023-05-09T12:37:00.929Z,9.74
2023-05-09T12:39:29.993Z,9.51
2023-05-09T12:42:01.974Z,9.38
2023-05-09T12:44:31.663Z,9.51
2023-05-09T12:47:04.736Z,9.60
2023-05-09T12:49:37.636Z,9.68
2023-05-09T12:52:09.102Z,9.72
2023-05-09T12:54:39.171Z,9.82
2023-05-09T12:57:23.614Z,9.91
2023-05-09T12:59:52.808Z,10.02
2023-05-09T13:02:21.933Z,10.10
2023-05-09T13:04:51.024Z,10.10
2023-05-09T13:07:20.369Z,10.13
2023-05-09T13:09:57.776Z,10.14
2023-05-09T13:12:27.342Z,10.28
2023-05-09T13:14:56.433Z,10.13
2023-05-09T13:17:25.505Z,10.23
2023-05-09T13:19:54.927Z,10.16
2023-05-09T13:22:24.092Z,10.13
2023-05-09T13:24:53.041Z,10.15
2023-05-09T13:27:22.069Z,10.21
2023-05-09T13:29:51.052Z,10.21
2023-05-09T13:32:22.815Z,10.10
2023-05-09T13:34:55.051Z,10.16
2023-05-09T13:37:24.006Z,10.29
2023-05-09T13:39:53.066Z,10.63
2023-05-09T13:42:22.286Z,10.66
2023-05-09T13:44:53.899Z,10.46
2023-05-09T13:47:23.196Z,10.55
2023-05-09T13:49:53.129Z,10.54
2023-05-09T13:52:22.262Z,10.57
2023-05-09T13:54:51.462Z,10.46
2023-05-09T13:57:20.699Z,10.59
2023-05-09T13:59:49.684Z,10.60
2023-05-09T14:02:19.702Z,10.67
2023-05-09T14:04:49.229Z,10.64
2023-05-09T14:07:18.667Z,10.72
2023-05-09T14:09:51.955Z,10.76
2023-05-09T14:12:23.392Z,10.78
2023-05-09T14:14:52.397Z,10.75
2023-05-09T14:17:22.110Z,10.78
2023-05-09T14:19:51.976Z,11.06
2023-05-09T14:22:21.040Z,10.94
2023-05-09T14:24:50.024Z,10.77
2023-05-09T14:27:19.213Z,10.83
2023-05-09T14:29:48.105Z,10.91
2023-05-09T14:32:17.307Z,10.98
2023-05-09T14:34:46.716Z,10.88
2023-05-09T14:37:15.870Z,10.96
2023-05-09T14:39:49.334Z,10.97
2023-05-09T14:42:19.873Z,10.94
2023-05-09T14:44:48.916Z,10.81
2023-05-09T14:47:17.853Z,10.89
2023-05-09T14:49:46.893Z,10.83
2023-05-09T14:52:21.272Z,10.80
2023-05-09T14:54:50.369Z,10.88
2023-05-09T14:57:19.666Z,10.95
2023-05-09T14:59:49.040Z,11.01
2023-05-09T15:02:18.478Z,10.86
2023-05-09T15:04:47.521Z,10.94
2023-05-09T15:07:16.609Z,11.05
2023-05-09T15:09:45.564Z,10.98
2023-05-09T15:12:15.659Z,11.08
2023-05-09T15:14:44.770Z,11.21
2023-05-09T15:17:14.278Z,11.16
2023-05-09T15:19:44.856Z,10.89
2023-05-09T15:22:14.427Z,11.00
2023-05-09T15:24:46.631Z,10.83
2023-05-09T15:27:15.811Z,10.87
2023-05-09T15:29:50.508Z,10.97
2023-05-09T15:32:20.643Z,10.85
2023-05-09T15:34:49.748Z,10.89
2023-05-09T15:37:18.644Z,10.81
2023-05-09T15:39:47.779Z,10.81
2023-05-09T15:42:17.563Z,10.80
2023-05-09T15:44:49.764Z,11.00
2023-05-09T15:47:18.840Z,10.94
2023-05-09T15:49:47.736Z,10.99
2023-05-09T15:52:17.075Z,11.00
2023-05-09T15:54:46.283Z,11.16
2023-05-09T15:57:15.317Z,11.30
2023-05-09T15:59:44.381Z,11.32
2023-05-09T16:02:13.502Z,11.32
2023-05-09T16:04:43.413Z,11.31
2023-05-09T16:07:12.624Z,11.29
2023-05-09T16:09:41.568Z,11.07
2023-05-09T16:12:10.639Z,11.13
2023-05-09T16:14:39.779Z,11.28
2023-05-09T16:17:09.131Z,11.52
2023-05-09T16:19:38.191Z,11.52
2023-05-09T16:22:07.491Z,11.47
2023-05-09T16:24:38.932Z,11.64
2023-05-09T16:27:07.986Z,11.89
2023-05-09T16:29:37.311Z,11.68
2023-05-09T16:32:06.797Z,11.98
2023-05-09T16:34:36.460Z,12.03
2023-05-09T16:37:05.673Z,11.86
2023-05-09T16:39:34.808Z,11.67
2023-05-09T16:42:04.889Z,12.08
2023-05-09T16:44:34.120Z,11.94
2023-05-09T16:47:03.282Z,12.28
2023-05-09T16:49:32.301Z,12.34
2023-05-09T16:52:01.282Z,11.99
2023-05-09T16:54:32.259Z,12.24
2023-05-09T16:57:01.834Z,12.30
2023-05-09T16:59:30.746Z,12.27
2023-05-09T17:02:00.794Z,12.39
2023-05-09T17:04:30.170Z,12.41
2023-05-09T17:06:59.171Z,12.25
2023-05-09T17:09:28.141Z,12.16
2023-05-09T17:11:57.265Z,11.96
2023-05-09T17:14:26.231Z,12.14
2023-05-09T17:16:55.470Z,12.14
2023-05-09T17:19:24.663Z,12.40
2023-05-09T17:21:54.312Z,12.51
2023-05-09T17:24:23.546Z,12.70
2023-05-09T17:26:52.858Z,12.82
2023-05-09T17:29:21.860Z,12.81
2023-05-09T17:31:50.829Z,12.87
2023-05-09T17:34:19.889Z,12.95
2023-05-09T17:36:48.843Z,12.83
2023-05-09T17:39:18.466Z,12.88
2023-05-09T17:41:48.042Z,12.88
2023-05-09T17:44:17.451Z,12.96
2023-05-09T17:46:46.375Z,12.77
2023-05-09T17:49:16.103Z,12.74
2023-05-09T17:51:45.446Z,12.55
2023-05-09T17:54:15.129Z,12.94
2023-05-09T17:56:44.673Z,12.88
2023-05-09T17:59:14.217Z,13.45
2023-05-09T18:01:43.166Z,13.43
2023-05-09T18:04:12.051Z,13.37
2023-05-09T18:06:41.202Z,13.10
2023-05-09T18:09:10.069Z,13.25
2023-05-09T18:11:39.481Z,13.22
2023-05-09T18:14:08.478Z,13.23
2023-05-09T18:16:38.484Z,13.25
2023-05-09T18:19:07.769Z,13.41
2023-05-09T18:21:37.168Z,13.10
2023-05-09T18:24:07.028Z,13.55
2023-05-09T18:26:36.156Z,13.26
2023-05-09T18:29:05.254Z,13.26
2023-05-09T18:31:39.401Z,13.49
2023-05-09T18:34:10.147Z,13.40
2023-05-09T18:36:39.326Z,13.42
2023-05-09T18:39:09.689Z,13.75
2023-05-09T18:41:38.681Z,13.78
2023-05-09T18:44:08.163Z,14.03
2023-05-09T18:46:38.781Z,14.10
2023-05-09T18:49:08.713Z,14.05
2023-05-09T18:51:38.220Z,13.91
2023-05-09T18:54:08.029Z,13.98
2023-05-09T18:56:40.992Z,14.05
2023-05-09T18:59:17.212Z,14.04
2023-05-09T19:01:47.034Z,13.91
2023-05-09T19:04:18.082Z,13.98
2023-05-09T19:06:47.689Z,13.77
2023-05-09T19:09:17.484Z,13.90
2023-05-09T19:11:46.606Z,13.88
2023-05-09T19:14:15.631Z,14.07
2023-05-09T19:16:46.210Z,13.84
2023-05-09T19:19:15.642Z,13.99
2023-05-09T19:21:46.507Z,14.09
2023-05-09T19:24:16.589Z,14.47
2023-05-09T19:26:49.706Z,14.62
2023-05-09T19:29:20.218Z,14.74
2023-05-09T19:31:49.200Z,15.34
2023-05-09T19:34:18.957Z,15.68
2023-05-09T19:36:47.960Z,15.86
2023-05-09T19:39:16.922Z,15.79
2023-05-09T19:41:48.859Z,16.08
2023-05-09T19:44:17.853Z,15.75
2023-05-09T19:46:47.621Z,15.87
2023-05-09T19:49:18.040Z,15.95
2023-05-09T19:51:49.690Z,15.84
2023-05-09T19:54:21.506Z,16.12
2023-05-09T19:56:51.883Z,16.17
2023-05-09T19:59:21.488Z,16.12
2023-05-09T20:01:52.708Z,16.05
2023-05-09T20:04:25.069Z,15.82
2023-05-09T20:06:54.932Z,16.12
2023-05-09T20:09:24.048Z,16.08
2023-05-09T20:11:55.706Z,16.43
2023-05-09T20:14:24.714Z,16.79
2023-05-09T20:16:54.020Z,16.45
2023-05-09T20:19:23.689Z,16.86
2023-05-09T20:21:52.734Z,16.77
2023-05-09T20:24:21.755Z,17.28
2023-05-09T20:26:51.425Z,17.39
2023-05-09T20:29:20.481Z,17.43
2023-05-09T20:31:49.471Z,17.46
2023-05-09T20:34:20.327Z,17.64
2023-05-09T20:36:53.922Z,17.97
2023-05-09T20:39:24.995Z,17.75
2023-05-09T20:41:56.910Z,17.38
2023-05-09T20:44:49.149Z,16.88
2023-05-09T20:47:21.732Z,16.56
2023-05-09T20:49:51.073Z,16.57
2023-05-09T20:52:22.619Z,16.70
2023-05-09T20:54:52.236Z,17.30
2023-05-09T20:57:21.469Z,17.57
2023-05-09T20:59:51.375Z,17.42
2023-05-09T21:02:20.449Z,17.24
2023-05-09T21:04:51.973Z,16.94
2023-05-09T21:07:21.654Z,17.58
2023-05-09T21:09:51.960Z,17.92
2023-05-09T21:12:22.032Z,18.15
2023-05-09T21:14:51.823Z,17.62
2023-05-09T21:17:20.960Z,17.24
2023-05-09T21:19:53.473Z,17.68
2023-05-09T21:22:25.862Z,17.72
2023-05-09T21:24:54.764Z,17.10
2023-05-09T21:27:23.892Z,17.26
2023-05-09T21:29:53.331Z,17.34
2023-05-09T21:32:22.293Z,17.67
2023-05-09T21:34:51.213Z,18.05
2023-05-09T21:37:19.934Z,18.04
2023-05-09T21:39:48.820Z,17.70
2023-05-09T21:42:20.624Z,17.95
2023-05-09T21:44:50.107Z,18.71
2023-05-09T21:47:19.475Z,18.80
2023-05-09T21:49:48.369Z,19.13
2023-05-09T21:52:17.172Z,19.17
2023-05-09T21:54:46.214Z,18.40
2023-05-09T21:57:15.030Z,18.43
2023-05-09T21:59:43.766Z,18.01
2023-05-09T22:02:13.052Z,17.97
2023-05-09T22:04:41.987Z,17.95
2023-05-09T22:07:10.820Z,18.67
2023-05-09T22:09:39.641Z,18.92
2023-05-09T22:12:08.674Z,19.63
2023-05-09T22:14:45.358Z,19.42
2023-05-09T22:17:25.155Z,19.24
2023-05-09T22:19:55.084Z,19.04
2023-05-09T22:22:24.014Z,18.73
2023-05-09T22:24:53.557Z,18.39
2023-05-09T22:27:22.620Z,18.31
2023-05-09T22:29:51.745Z,18.41
2023-05-09T22:32:20.672Z,17.96
2023-05-09T22:34:49.469Z,17.77
2023-05-09T22:37:18.876Z,17.64
2023-05-09T22:39:48.078Z,17.90
2023-05-09T22:42:19.664Z,17.91
2023-05-09T22:44:50.542Z,16.96
2023-05-09T22:47:19.814Z,16.98
2023-05-09T22:49:49.854Z,17.14
2023-05-09T22:52:19.273Z,16.93
2023-05-09T22:54:48.270Z,16.95
2023-05-09T22:57:20.021Z,17.17
2023-05-09T22:59:49.094Z,17.27
2023-05-09T23:02:18.578Z,17.30
2023-05-09T23:04:47.990Z,17.13
2023-05-09T23:07:17.079Z,17.13
2023-05-09T23:09:46.533Z,16.74
2023-05-09T23:12:15.878Z,17.29
2023-05-09T23:14:47.941Z,17.65
2023-05-09T23:17:17.075Z,18.06
2023-05-09T23:19:46.820Z,18.43
2023-05-09T23:22:16.320Z,18.23
2023-05-09T23:24:45.370Z,18.54
2023-05-09T23:27:14.345Z,18.50
2023-05-09T23:29:44.533Z,18.77
2023-05-09T23:32:13.671Z,18.90
2023-05-09T23:34:42.661Z,18.63
2023-05-09T23:37:12.706Z,19.43
2023-05-09T23:39:41.803Z,19.58
2023-05-09T23:42:10.830Z,19.62
2023-05-09T23:44:40.082Z,20.17
2023-05-09T23:47:09.193Z,20.15
2023-05-09T23:49:38.318Z,20.42
2023-05-09T23:52:07.702Z,20.57
2023-05-09T23:54:36.996Z,20.26
2023-05-09T23:57:06.052Z,20.14
2023-05-09T23:59:35.163Z,19.85
